SEGU/GYE METAR and TAF weather

Enter ICAO airport designator
Station Type Date Time Source
SEGU METAR 2019/12/10 19:00 UTC NOAA

SEGU 101900Z 16006KT 140V200 9999 FEW026 33/20 Q1008 NOSIG RMK A2977


Station Type Date Time Source
SEGU Decoded METAR 2019/12/10 19:00 UTC NOAA

Guayaquil / Simon Bolivar, Ecuador (SEGU) 02-09S 079-53W 9M
Dec 10, 2019 - 02:00 PM EST / 2019.12.10 1900 UTC
Wind: from the SSE (160 degrees) at 7 MPH (6 KT) (direction variable):0
Visibility: greater than 7 mile(s):0
Sky conditions: mostly clear
Temperature: 91 F (33 C)
Heat index: 94.6 F (34.8 C):1
Dew Point: 68 F (20 C)
Relative Humidity: 46%
Pressure (altimeter): 29.77 in. Hg (1008 hPa)
ob: SEGU 101900Z 16006KT 140V200 9999 FEW026 33/20 Q1008 NOSIG RMK A2977
cycle: 19

Station Type Date Time Source
SEGU TAF 2019/12/10 18:45 UTC NOAA

TAF SEGU 101632Z 1018/1118 20007KT 9999 FEW026 BKN100
TEMPO 1100/1103 21012KT
FM110800 23004KT 9999 FEW010 SCT023 BKN100
FM111300 15006KT 9999 FEW026 SCT100 TX32/1020Z TN23/1110Z

Example: see airport list